Terminal Aerodrome Forecast
Issued by NWS

Current Version | Previous Version | Text Only | Print | Product List | Glossary On
Versions: 1 2 3 4 5 6 7 8 9 10 11 12 13
000
FTUS44 KMAF 251343 AAA
TAFINK
TAF AMD
KINK 251343Z 2514/2612 02020KT P6SM OVC027
     FM251500 03015G24KT P6SM OVC025
     FM252000 36009KT P6SM SCT040=

USA.gov is the U.S. government's official web portal to all federal, state and local government web resources and services.